createdAt,value
2017-06-13T00:00:20.873Z,1011.00
2017-06-13T00:01:14.885Z,1011.01
2017-06-13T00:02:14.992Z,1011.04
2017-06-13T00:03:09.362Z,1011.00
2017-06-13T00:04:09.030Z,1010.99
2017-06-13T00:04:57.044Z,1011.04
2017-06-13T00:05:45.098Z,1011.04
2017-06-13T00:06:40.183Z,1011.09
2017-06-13T00:07:40.171Z,1011.07
2017-06-13T00:08:35.182Z,1011.09
2017-06-13T00:09:29.280Z,1011.12
2017-06-13T00:10:23.298Z,1011.12
2017-06-13T00:11:17.326Z,1011.14
2017-06-13T00:12:06.558Z,1011.10
2017-06-13T00:13:00.385Z,1011.17
2017-06-13T00:13:55.493Z,1011.15
2017-06-13T00:14:55.542Z,1011.09
2017-06-13T00:15:43.557Z,1011.09
2017-06-13T00:16:32.574Z,1011.07
2017-06-13T00:17:32.608Z,1011.09
2017-06-13T00:18:38.686Z,1011.11
2017-06-13T00:19:33.660Z,1011.09
2017-06-13T00:20:27.710Z,1011.10
2017-06-13T00:21:22.799Z,1011.16
2017-06-13T00:22:16.789Z,1011.12
2017-06-13T00:23:17.822Z,1011.13
2017-06-13T00:24:12.852Z,1011.13
2017-06-13T00:25:01.913Z,1011.13
2017-06-13T00:25:56.974Z,1011.14
2017-06-13T00:26:50.983Z,1011.12
2017-06-13T00:27:51.038Z,1011.14
2017-06-13T00:28:51.398Z,1011.10
2017-06-13T00:29:51.122Z,1011.10
2017-06-13T00:30:40.148Z,1011.06
2017-06-13T00:31:40.186Z,1011.09
2017-06-13T00:32:35.226Z,1011.08
2017-06-13T00:33:30.821Z,1011.10
2017-06-13T00:34:19.719Z,1011.09
2017-06-13T00:35:14.473Z,1011.08
2017-06-13T00:36:09.394Z,1011.09
2017-06-13T00:37:03.360Z,1011.10
2017-06-13T00:37:58.490Z,1011.11
2017-06-13T00:38:47.499Z,1011.11
2017-06-13T00:39:35.512Z,1011.10
2017-06-13T00:40:29.569Z,1011.11
2017-06-13T00:41:24.608Z,1011.10
2017-06-13T00:42:13.688Z,1011.12
2017-06-13T00:43:08.712Z,1011.09
2017-06-13T00:44:02.763Z,1011.10
2017-06-13T00:44:56.814Z,1011.13
2017-06-13T00:45:50.803Z,1011.17
2017-06-13T00:46:38.862Z,1011.14
2017-06-13T00:47:32.902Z,1011.15
2017-06-13T00:48:26.947Z,1011.15
2017-06-13T00:49:21.980Z,1011.15
2017-06-13T00:50:17.011Z,1011.13
2017-06-13T00:51:06.180Z,1011.10
2017-06-13T00:52:06.069Z,1011.08
2017-06-13T00:53:01.512Z,1011.12
2017-06-13T00:53:55.187Z,1011.07
2017-06-13T00:54:55.630Z,1011.06
2017-06-13T00:55:49.271Z,1011.08
2017-06-13T00:56:37.628Z,1011.09
2017-06-13T00:57:32.644Z,1011.11
2017-06-13T00:58:32.738Z,1011.09
2017-06-13T00:59:26.379Z,1011.11
2017-06-13T01:00:27.837Z,1011.14
2017-06-13T01:01:28.474Z,1011.11
2017-06-13T01:02:28.511Z,1011.16
2017-06-13T01:03:28.945Z,1011.12
2017-06-13T01:04:23.587Z,1011.13
2017-06-13T01:05:12.595Z,1011.12
2017-06-13T01:06:07.685Z,1011.08
2017-06-13T01:07:07.670Z,1011.09
2017-06-13T01:08:03.156Z,1011.07
2017-06-13T01:08:57.762Z,1011.05
2017-06-13T01:09:57.782Z,1011.03
2017-06-13T01:10:51.856Z,1010.99
2017-06-13T01:11:45.871Z,1011.05
2017-06-13T01:12:39.924Z,1011.03
2017-06-13T01:13:34.942Z,1011.02
2017-06-13T01:14:29.019Z,1011.04
2017-06-13T01:15:23.047Z,1011.07
2017-06-13T01:16:18.094Z,1011.03
2017-06-13T01:17:07.118Z,1011.06
2017-06-13T01:17:56.187Z,1011.06
2017-06-13T01:18:56.653Z,1011.07
2017-06-13T01:19:51.274Z,1011.12
2017-06-13T01:20:52.292Z,1011.09
2017-06-13T01:21:47.311Z,1011.13
2017-06-13T01:22:47.663Z,1011.08
2017-06-13T01:23:41.383Z,1011.09
2017-06-13T01:24:41.528Z,1011.08
2017-06-13T01:25:30.467Z,1011.09
2017-06-13T01:26:30.496Z,1011.11
2017-06-13T01:27:24.542Z,1011.08
2017-06-13T01:28:24.749Z,1011.09
2017-06-13T01:29:19.603Z,1011.10
2017-06-13T01:30:14.759Z,1011.06
2017-06-13T01:31:08.685Z,1011.06
2017-06-13T01:32:03.673Z,1011.08
2017-06-13T01:32:53.107Z,1011.11
2017-06-13T01:33:52.796Z,1011.08
2017-06-13T01:34:40.869Z,1011.06
2017-06-13T01:35:41.888Z,1011.09
2017-06-13T01:36:42.885Z,1011.09
2017-06-13T01:37:30.973Z,1011.10
2017-06-13T01:38:31.462Z,1011.04
2017-06-13T01:39:20.040Z,1011.09
2017-06-13T01:40:14.103Z,1011.08
2017-06-13T01:41:09.205Z,1011.10
2017-06-13T01:42:03.181Z,1011.09
2017-06-13T01:43:04.169Z,1011.08
2017-06-13T01:44:04.258Z,1011.07
2017-06-13T01:44:53.293Z,1011.09
2017-06-13T01:45:47.307Z,1011.14
2017-06-13T01:46:36.614Z,1011.13
2017-06-13T01:47:30.377Z,1011.14
2017-06-13T01:48:30.814Z,1011.13
2017-06-13T01:49:19.406Z,1011.14
2017-06-13T01:50:19.483Z,1011.11
2017-06-13T01:51:07.525Z,1011.12
2017-06-13T01:52:02.601Z,1011.09
2017-06-13T01:52:56.615Z,1011.09
2017-06-13T01:53:50.660Z,1011.07
2017-06-13T01:54:50.703Z,1011.04
2017-06-13T01:55:56.679Z,1011.01
2017-06-13T01:56:50.747Z,1010.97
2017-06-13T01:57:45.450Z,1011.01
2017-06-13T01:58:44.794Z,1011.00
2017-06-13T01:59:39.030Z,1011.02
2017-06-13T02:00:39.069Z,1011.05
2017-06-13T02:01:27.949Z,1011.03
2017-06-13T02:02:22.964Z,1011.04
2017-06-13T02:03:11.382Z,1011.05
2017-06-13T02:04:06.067Z,1011.04
2017-06-13T02:04:55.061Z,1011.08
2017-06-13T02:05:43.173Z,1011.08
2017-06-13T02:06:32.185Z,1011.06
2017-06-13T02:07:20.271Z,1011.08
2017-06-13T02:08:14.627Z,1011.08
2017-06-13T02:09:08.368Z,1011.07
2017-06-13T02:09:56.417Z,1011.05
2017-06-13T02:10:51.399Z,1011.06
2017-06-13T02:11:40.392Z,1011.10
2017-06-13T02:12:34.464Z,1011.08
2017-06-13T02:13:29.560Z,1011.11
2017-06-13T02:14:29.587Z,1011.09
2017-06-13T02:15:29.561Z,1011.12
2017-06-13T02:16:24.603Z,1011.08
2017-06-13T02:17:18.703Z,1011.10
2017-06-13T02:18:18.831Z,1011.15
2017-06-13T02:19:13.762Z,1011.14
2017-06-13T02:20:08.776Z,1011.13
2017-06-13T02:21:14.777Z,1011.11
2017-06-13T02:22:08.896Z,1011.13
2017-06-13T02:23:03.897Z,1011.12
2017-06-13T02:23:58.934Z,1011.15
2017-06-13T02:24:53.001Z,1011.14
2017-06-13T02:25:42.007Z,1011.14
2017-06-13T02:26:37.080Z,1011.12
2017-06-13T02:27:37.100Z,1011.08
2017-06-13T02:28:32.642Z,1011.11
2017-06-13T02:29:26.251Z,1011.10
2017-06-13T02:30:15.276Z,1011.11
2017-06-13T02:31:04.263Z,1011.10
2017-06-13T02:32:05.328Z,1011.11
2017-06-13T02:33:05.515Z,1011.12
2017-06-13T02:34:05.357Z,1011.08
2017-06-13T02:34:53.850Z,1011.12
2017-06-13T02:35:41.524Z,1011.08
2017-06-13T02:36:30.484Z,1011.11
2017-06-13T02:37:19.529Z,1011.08
2017-06-13T02:38:08.603Z,1011.07
2017-06-13T02:39:02.591Z,1011.05
2017-06-13T02:39:57.666Z,1011.08
2017-06-13T02:40:46.890Z,1011.07
2017-06-13T02:41:34.695Z,1011.05
2017-06-13T02:42:23.909Z,1011.08
2017-06-13T02:43:12.020Z,1011.01
2017-06-13T02:43:59.910Z,1011.01
2017-06-13T02:44:48.192Z,1011.01
2017-06-13T02:45:36.980Z,1010.97
2017-06-13T02:46:37.219Z,1010.98
2017-06-13T02:47:37.006Z,1011.03
2017-06-13T02:48:26.100Z,1011.03
2017-06-13T02:49:14.108Z,1010.98
2017-06-13T02:50:02.164Z,1011.02
2017-06-13T02:50:57.198Z,1010.99
2017-06-13T02:51:45.364Z,1011.03
2017-06-13T02:52:34.295Z,1011.01
2017-06-13T02:53:29.331Z,1011.02
2017-06-13T02:54:30.481Z,1011.07
2017-06-13T02:55:24.390Z,1011.06
2017-06-13T02:56:24.620Z,1011.03
2017-06-13T02:57:13.911Z,1011.00
2017-06-13T02:58:02.815Z,1011.04
2017-06-13T02:59:02.550Z,1011.05
2017-06-13T03:00:02.873Z,1011.02
2017-06-13T03:00:57.864Z,1011.00
2017-06-13T03:01:51.970Z,1011.03
2017-06-13T03:02:39.861Z,1011.00
2017-06-13T03:03:28.193Z,1011.02
2017-06-13T03:04:21.818Z,1010.96
2017-06-13T03:05:15.836Z,1010.96
2017-06-13T03:06:16.305Z,1010.95
2017-06-13T03:07:09.910Z,1010.96
2017-06-13T03:08:03.991Z,1010.98
2017-06-13T03:08:57.994Z,1010.99
2017-06-13T03:09:52.088Z,1010.98
2017-06-13T03:10:47.086Z,1011.00
2017-06-13T03:11:36.132Z,1010.97
2017-06-13T03:12:30.204Z,1010.99
2017-06-13T03:13:24.307Z,1010.96
2017-06-13T03:14:13.347Z,1010.99
2017-06-13T03:15:08.356Z,1010.97
2017-06-13T03:16:02.375Z,1011.01
2017-06-13T03:16:56.389Z,1011.00
2017-06-13T03:17:56.394Z,1011.01
2017-06-13T03:18:56.541Z,1011.02
2017-06-13T03:19:45.787Z,1011.04
2017-06-13T03:20:39.505Z,1011.08
2017-06-13T03:21:39.826Z,1011.07
2017-06-13T03:22:28.820Z,1011.08
2017-06-13T03:23:23.595Z,1011.07
2017-06-13T03:24:18.041Z,1011.08
2017-06-13T03:25:12.719Z,1011.12
2017-06-13T03:26:01.773Z,1011.07
2017-06-13T03:26:55.802Z,1011.10
2017-06-13T03:27:44.834Z,1011.11
2017-06-13T03:28:39.257Z,1011.11
2017-06-13T03:29:32.905Z,1011.12
2017-06-13T03:30:20.967Z,1011.09
2017-06-13T03:31:16.017Z,1011.11
2017-06-13T03:32:10.034Z,1011.13
2017-06-13T03:33:04.079Z,1011.11
2017-06-13T03:34:04.131Z,1011.09
2017-06-13T03:34:58.777Z,1011.12
2017-06-13T03:35:53.199Z,1011.12
2017-06-13T03:36:41.373Z,1011.16
2017-06-13T03:37:35.490Z,1011.15
2017-06-13T03:38:35.365Z,1011.15
2017-06-13T03:39:24.381Z,1011.18
2017-06-13T03:40:13.585Z,1011.20
2017-06-13T03:41:08.666Z,1011.21
2017-06-13T03:41:56.907Z,1011.22
2017-06-13T03:42:51.047Z,1011.21
2017-06-13T03:43:44.588Z,1011.20
2017-06-13T03:44:38.578Z,1011.23
2017-06-13T03:45:26.698Z,1011.18
2017-06-13T03:46:20.684Z,1011.19
2017-06-13T03:47:09.783Z,1011.18
2017-06-13T03:47:58.789Z,1011.18
2017-06-13T03:48:58.826Z,1011.20
2017-06-13T03:49:58.892Z,1011.20
2017-06-13T03:50:53.448Z,1011.23
2017-06-13T03:51:41.985Z,1011.22
2017-06-13T03:52:35.981Z,1011.26
2017-06-13T03:53:25.073Z,1011.29
2017-06-13T03:54:19.083Z,1011.29
2017-06-13T03:55:20.128Z,1011.31
2017-06-13T03:56:14.196Z,1011.31
2017-06-13T03:57:02.345Z,1011.29
2017-06-13T03:57:56.342Z,1011.26
2017-06-13T03:58:50.594Z,1011.26
2017-06-13T03:59:45.324Z,1011.29
2017-06-13T04:00:45.328Z,1011.28
2017-06-13T04:01:39.375Z,1011.30
2017-06-13T04:02:28.414Z,1011.33
2017-06-13T04:03:17.842Z,1011.32
2017-06-13T04:04:12.523Z,1011.29
2017-06-13T04:05:13.552Z,1011.37
2017-06-13T04:06:08.606Z,1011.38
2017-06-13T04:07:08.693Z,1011.40
2017-06-13T04:08:08.682Z,1011.44
2017-06-13T04:09:08.719Z,1011.46
2017-06-13T04:10:09.014Z,1011.43
2017-06-13T04:11:08.788Z,1011.40
2017-06-13T04:12:09.001Z,1011.43
2017-06-13T04:13:08.865Z,1011.41
2017-06-13T04:14:08.892Z,1011.44
2017-06-13T04:15:08.931Z,1011.50
2017-06-13T04:16:08.980Z,1011.49
2017-06-13T04:17:08.988Z,1011.53
2017-06-13T04:18:09.077Z,1011.56
2017-06-13T04:19:09.096Z,1011.57
2017-06-13T04:20:09.196Z,1011.55
2017-06-13T04:21:09.172Z,1011.55
2017-06-13T04:22:09.198Z,1011.57
2017-06-13T04:23:03.188Z,1011.60
2017-06-13T04:23:51.616Z,1011.62
2017-06-13T04:24:40.288Z,1011.62
2017-06-13T04:25:28.400Z,1011.61
2017-06-13T04:26:17.377Z,1011.63
2017-06-13T04:27:05.672Z,1011.57
2017-06-13T04:28:05.507Z,1011.57
2017-06-13T04:28:59.508Z,1011.63
2017-06-13T04:30:00.576Z,1011.63
2017-06-13T04:30:54.607Z,1011.65
2017-06-13T04:31:49.657Z,1011.67
2017-06-13T04:32:43.705Z,1011.59
2017-06-13T04:33:38.699Z,1011.65
2017-06-13T04:34:26.796Z,1011.59
2017-06-13T04:35:20.820Z,1011.59
2017-06-13T04:36:09.890Z,1011.59
2017-06-13T04:36:57.926Z,1011.59
2017-06-13T04:37:52.435Z,1011.61
2017-06-13T04:38:46.138Z,1011.60
2017-06-13T04:39:40.087Z,1011.57
2017-06-13T04:40:28.209Z,1011.57
2017-06-13T04:41:17.410Z,1011.54
2017-06-13T04:42:06.557Z,1011.54
2017-06-13T04:42:54.699Z,1011.53
2017-06-13T04:43:48.268Z,1011.46
2017-06-13T04:44:37.317Z,1011.52
2017-06-13T04:45:37.377Z,1011.48
2017-06-13T04:46:32.407Z,1011.48
2017-06-13T04:47:27.468Z,1011.48
2017-06-13T04:48:16.549Z,1011.45
2017-06-13T04:49:11.492Z,1011.47
2017-06-13T04:50:11.582Z,1011.50
2017-06-13T04:51:06.633Z,1011.51
2017-06-13T04:51:55.662Z,1011.50
2017-06-13T04:52:44.711Z,1011.53
2017-06-13T04:53:39.750Z,1011.56
2017-06-13T04:54:34.817Z,1011.57
2017-06-13T04:55:28.874Z,1011.57
2017-06-13T04:56:16.963Z,1011.57
2017-06-13T04:57:11.913Z,1011.56
2017-06-13T04:58:12.262Z,1011.60
2017-06-13T04:59:12.426Z,1011.58
2017-06-13T05:00:06.079Z,1011.57
2017-06-13T05:01:01.112Z,1011.59
2017-06-13T05:02:01.191Z,1011.62
2017-06-13T05:02:50.697Z,1011.57
2017-06-13T05:03:50.307Z,1011.62
2017-06-13T05:04:39.372Z,1011.63
2017-06-13T05:05:33.671Z,1011.69
2017-06-13T05:06:22.414Z,1011.72
2017-06-13T05:07:17.610Z,1011.65
2017-06-13T05:08:06.892Z,1011.66
2017-06-13T05:09:01.519Z,1011.69
2017-06-13T05:10:01.698Z,1011.68
2017-06-13T05:10:51.204Z,1011.66
2017-06-13T05:11:39.660Z,1011.67
2017-06-13T05:12:33.989Z,1011.65
2017-06-13T05:13:33.766Z,1011.63
2017-06-13T05:14:23.082Z,1011.63
2017-06-13T05:15:16.848Z,1011.67
2017-06-13T05:16:10.926Z,1011.62
2017-06-13T05:17:05.977Z,1011.62
2017-06-13T05:17:55.474Z,1011.68
2017-06-13T05:18:50.537Z,1011.69
2017-06-13T05:19:44.117Z,1011.73
2017-06-13T05:20:38.507Z,1011.71
2017-06-13T05:21:27.213Z,1011.73
2017-06-13T05:22:21.271Z,1011.71
2017-06-13T05:23:16.306Z,1011.72
2017-06-13T05:24:10.471Z,1011.76
2017-06-13T05:25:04.488Z,1011.75
2017-06-13T05:25:59.558Z,1011.80
2017-06-13T05:26:59.514Z,1011.80
2017-06-13T05:27:54.055Z,1011.81
2017-06-13T05:28:47.835Z,1011.81
2017-06-13T05:29:47.953Z,1011.82
2017-06-13T05:30:42.688Z,1011.84
2017-06-13T05:31:32.047Z,1011.83
2017-06-13T05:32:20.772Z,1011.85
2017-06-13T05:33:08.893Z,1011.86
2017-06-13T05:34:03.954Z,1011.83
2017-06-13T05:34:58.935Z,1011.88
2017-06-13T05:36:00.012Z,1011.85
2017-06-13T05:36:49.090Z,1011.88
2017-06-13T05:37:37.432Z,1011.87
2017-06-13T05:38:37.394Z,1011.79
2017-06-13T05:39:26.234Z,1011.89
2017-06-13T05:40:15.247Z,1011.89
2017-06-13T05:41:09.317Z,1011.90
2017-06-13T05:42:09.364Z,1011.92
2017-06-13T05:42:58.457Z,1011.86
2017-06-13T05:43:53.480Z,1011.85
2017-06-13T05:44:47.627Z,1011.86
2017-06-13T05:45:35.568Z,1011.82
2017-06-13T05:46:24.607Z,1011.84
2017-06-13T05:47:19.938Z,1011.81
2017-06-13T05:48:08.706Z,1011.78
2017-06-13T05:49:04.143Z,1011.83
2017-06-13T05:49:57.898Z,1011.71
2017-06-13T05:50:57.871Z,1011.75
2017-06-13T05:51:52.936Z,1011.88
2017-06-13T05:52:54.457Z,1011.88
2017-06-13T05:53:42.047Z,1011.83
2017-06-13T05:54:37.495Z,1011.69
2017-06-13T05:55:26.336Z,1011.91
2017-06-13T05:56:20.218Z,1011.90
2017-06-13T05:57:20.218Z,1011.86
2017-06-13T05:58:09.676Z,1011.69
2017-06-13T05:59:03.334Z,1011.74
2017-06-13T05:59:58.372Z,1011.84
2017-06-13T06:00:53.768Z,1011.81
2017-06-13T06:01:48.081Z,1011.71
2017-06-13T06:02:48.230Z,1011.70
2017-06-13T06:03:37.000Z,1011.69
2017-06-13T06:04:25.931Z,1011.73
2017-06-13T06:05:20.722Z,1011.78
2017-06-13T06:06:21.420Z,1011.74
2017-06-13T06:07:15.811Z,1011.74
2017-06-13T06:08:04.834Z,1011.86
2017-06-13T06:09:04.965Z,1011.80
2017-06-13T06:09:59.092Z,1011.81
2017-06-13T06:10:53.147Z,1011.68
2017-06-13T06:11:42.079Z,1011.75
2017-06-13T06:12:37.108Z,1011.78
2017-06-13T06:13:32.519Z,1011.77
2017-06-13T06:14:27.210Z,1011.86
2017-06-13T06:15:16.553Z,1011.80
2017-06-13T06:16:16.531Z,1011.76
2017-06-13T06:17:16.732Z,1011.81
2017-06-13T06:18:05.713Z,1011.81
2017-06-13T06:18:59.508Z,1011.78
2017-06-13T06:19:59.937Z,1011.69
2017-06-13T06:20:54.580Z,1011.77
2017-06-13T06:21:49.626Z,1011.76
2017-06-13T06:22:43.702Z,1012.03
2017-06-13T06:23:44.059Z,1011.86
2017-06-13T06:24:38.076Z,1011.84
2017-06-13T06:25:32.205Z,1011.91
2017-06-13T06:26:32.283Z,1011.96
2017-06-13T06:27:32.260Z,1011.97
2017-06-13T06:28:21.379Z,1011.97
2017-06-13T06:29:10.392Z,1011.93
2017-06-13T06:30:05.443Z,1012.03
2017-06-13T06:30:53.491Z,1012.08
2017-06-13T06:31:41.555Z,1012.03
2017-06-13T06:32:35.651Z,1011.85
2017-06-13T06:33:35.781Z,1012.01
2017-06-13T06:34:30.671Z,1012.00
2017-06-13T06:35:24.775Z,1011.97
2017-06-13T06:36:18.865Z,1011.94
2017-06-13T06:37:12.866Z,1011.98
2017-06-13T06:38:07.925Z,1012.03
2017-06-13T06:39:02.025Z,1012.07
2017-06-13T06:39:57.077Z,1012.11
2017-06-13T06:40:52.109Z,1012.09
2017-06-13T06:41:52.154Z,1011.97
2017-06-13T06:42:41.251Z,1012.05
2017-06-13T06:43:30.295Z,1012.00
2017-06-13T06:44:24.373Z,1011.78
2017-06-13T06:45:19.402Z,1012.03
2017-06-13T06:46:07.509Z,1012.10
2017-06-13T06:47:01.493Z,1012.07
2017-06-13T06:47:55.612Z,1012.16
2017-06-13T06:48:49.593Z,1012.09
2017-06-13T06:49:44.752Z,1011.97
2017-06-13T06:50:45.711Z,1012.00
2017-06-13T06:51:39.778Z,1012.18
2017-06-13T06:52:28.838Z,1012.15
2017-06-13T06:53:23.931Z,1011.99
2017-06-13T06:54:24.003Z,1012.07
2017-06-13T06:55:18.039Z,1012.04
2017-06-13T06:56:12.059Z,1012.25
2017-06-13T06:57:13.136Z,1012.18
2017-06-13T06:58:02.209Z,1012.06
2017-06-13T06:58:57.264Z,1012.28
2017-06-13T06:59:46.269Z,1012.29
2017-06-13T07:00:40.334Z,1012.35
2017-06-13T07:01:35.424Z,1012.43
2017-06-13T07:02:24.453Z,1012.34
2017-06-13T07:03:13.535Z,1012.33
2017-06-13T07:04:01.542Z,1012.21
2017-06-13T07:05:01.644Z,1012.26
2017-06-13T07:05:55.793Z,1012.23
2017-06-13T07:06:50.725Z,1012.49
2017-06-13T07:07:44.757Z,1012.25
2017-06-13T07:08:32.838Z,1012.19
2017-06-13T07:09:27.912Z,1012.37
2017-06-13T07:10:27.926Z,1012.48
2017-06-13T07:11:22.074Z,1012.21
2017-06-13T07:12:16.039Z,1012.44
2017-06-13T07:13:10.117Z,1012.46
2017-06-13T07:13:59.170Z,1012.17
2017-06-13T07:14:48.264Z,1012.16
2017-06-13T07:15:42.315Z,1012.22
2017-06-13T07:16:37.338Z,1012.52
2017-06-13T07:17:32.384Z,1012.23
2017-06-13T07:18:26.474Z,1012.45
2017-06-13T07:19:20.547Z,1012.54
2017-06-13T07:20:14.630Z,1012.21
2017-06-13T07:21:14.636Z,1012.26
2017-06-13T07:22:02.716Z,1012.38
2017-06-13T07:22:58.039Z,1012.44
2017-06-13T07:23:51.814Z,1012.36
2017-06-13T07:24:51.906Z,1012.28
2017-06-13T07:25:45.944Z,1012.21
2017-06-13T07:26:40.975Z,1012.22
2017-06-13T07:27:41.001Z,1012.36
2017-06-13T07:28:30.133Z,1012.36
2017-06-13T07:29:19.157Z,1012.40
2017-06-13T07:30:13.218Z,1012.39
2017-06-13T07:31:07.244Z,1012.37
2017-06-13T07:32:01.308Z,1012.32
2017-06-13T07:33:01.401Z,1012.27
2017-06-13T07:33:56.421Z,1012.50
2017-06-13T07:34:45.518Z,1012.58
2017-06-13T07:35:33.529Z,1012.39
2017-06-13T07:36:33.597Z,1012.39
2017-06-13T07:37:28.632Z,1012.22
2017-06-13T07:38:23.901Z,1012.26
2017-06-13T07:39:18.760Z,1012.32
2017-06-13T07:40:13.786Z,1012.28
2017-06-13T07:41:02.889Z,1012.22
2017-06-13T07:41:51.942Z,1012.35
2017-06-13T07:42:47.040Z,1012.42
2017-06-13T07:43:42.121Z,1012.42
2017-06-13T07:44:36.122Z,1012.66
2017-06-13T07:45:25.148Z,1012.52
2017-06-13T07:46:26.218Z,1012.48
2017-06-13T07:47:15.262Z,1012.33
2017-06-13T07:48:09.337Z,1012.33
2017-06-13T07:49:04.431Z,1012.30
2017-06-13T07:49:53.417Z,1012.27
2017-06-13T07:50:42.482Z,1012.26
2017-06-13T07:51:36.545Z,1012.71
2017-06-13T07:52:31.641Z,1012.63
2017-06-13T07:53:25.720Z,1012.83
2017-06-13T07:54:25.763Z,1012.57
2017-06-13T07:55:14.771Z,1012.61
2017-06-13T07:56:08.831Z,1012.32
2017-06-13T07:56:57.878Z,1012.32
2017-06-13T07:57:51.926Z,1012.21
2017-06-13T07:58:41.017Z,1012.21
2017-06-13T07:59:36.092Z,1012.22
2017-06-13T08:00:36.099Z,1012.21
2017-06-13T08:01:31.216Z,1012.30
2017-06-13T08:02:32.193Z,1012.29
2017-06-13T08:03:21.273Z,1012.36
2017-06-13T08:04:15.674Z,1012.36
2017-06-13T08:05:09.321Z,1012.37
2017-06-13T08:06:03.383Z,1012.46
2017-06-13T08:06:57.368Z,1012.50
2017-06-13T08:07:51.389Z,1012.49
2017-06-13T08:08:40.515Z,1012.53
2017-06-13T08:09:35.574Z,1012.55
2017-06-13T08:10:29.789Z,1012.55
2017-06-13T08:11:18.697Z,1012.63
2017-06-13T08:12:12.772Z,1012.69
2017-06-13T08:13:01.804Z,1012.73
2017-06-13T08:13:55.941Z,1012.80
2017-06-13T08:14:49.944Z,1012.73
2017-06-13T08:15:44.045Z,1012.78
2017-06-13T08:16:43.738Z,1012.78
2017-06-13T08:17:33.035Z,1012.78
2017-06-13T08:18:27.133Z,1012.69
2017-06-13T08:19:22.041Z,1012.60
2017-06-13T08:20:17.068Z,1012.49
2017-06-13T08:21:11.271Z,1012.56
2017-06-13T08:22:06.073Z,1012.51
2017-06-13T08:23:01.286Z,1012.60
2017-06-13T08:23:56.409Z,1012.62
2017-06-13T08:24:50.515Z,1012.61
2017-06-13T08:25:44.534Z,1012.82
2017-06-13T08:26:38.584Z,1012.83
2017-06-13T08:27:32.618Z,1012.83
2017-06-13T08:28:26.728Z,1012.71
2017-06-13T08:29:15.743Z,1012.63
2017-06-13T08:30:09.781Z,1012.59
2017-06-13T08:31:03.784Z,1012.56
2017-06-13T08:31:57.918Z,1012.58
2017-06-13T08:32:51.916Z,1012.68
2017-06-13T08:33:41.015Z,1012.77
2017-06-13T08:34:30.040Z,1012.76
2017-06-13T08:35:30.114Z,1012.68
2017-06-13T08:36:25.185Z,1012.53
2017-06-13T08:37:19.220Z,1012.41
2017-06-13T08:38:13.288Z,1012.42
2017-06-13T08:39:08.328Z,1012.58
2017-06-13T08:40:02.321Z,1012.58
2017-06-13T08:40:56.425Z,1012.62
2017-06-13T08:41:45.526Z,1012.61
2017-06-13T08:42:39.526Z,1012.77
2017-06-13T08:43:33.575Z,1012.63
2017-06-13T08:44:22.704Z,1012.68
2017-06-13T08:45:16.693Z,1012.69
2017-06-13T08:46:16.650Z,1012.67
2017-06-13T08:47:05.790Z,1012.70
2017-06-13T08:47:53.842Z,1012.68
2017-06-13T08:48:47.999Z,1012.71
2017-06-13T08:49:42.997Z,1012.73
2017-06-13T08:50:36.949Z,1012.66
2017-06-13T08:51:31.974Z,1012.80
2017-06-13T08:52:21.010Z,1012.87
2017-06-13T08:53:10.156Z,1012.87
2017-06-13T08:54:04.097Z,1012.91
2017-06-13T08:54:53.275Z,1012.84
2017-06-13T08:55:42.089Z,1012.87
2017-06-13T08:56:36.311Z,1012.78
2017-06-13T08:57:36.375Z,1012.70
2017-06-13T08:58:30.539Z,1012.69
2017-06-13T08:59:24.541Z,1012.82
2017-06-13T09:00:18.510Z,1012.78
2017-06-13T09:01:06.590Z,1012.80
2017-06-13T09:01:54.327Z,1012.87
2017-06-13T09:02:54.567Z,1012.89
2017-06-13T09:03:43.793Z,1012.92
2017-06-13T09:04:43.502Z,1012.89
2017-06-13T09:05:38.585Z,1012.93
2017-06-13T09:06:27.634Z,1012.90
2017-06-13T09:07:22.020Z,1012.85
2017-06-13T09:08:17.079Z,1012.94
2017-06-13T09:09:05.143Z,1012.95
2017-06-13T09:10:00.176Z,1012.98
2017-06-13T09:11:01.219Z,1012.95
2017-06-13T09:11:55.311Z,1012.93
2017-06-13T09:12:49.311Z,1012.96
2017-06-13T09:13:44.363Z,1012.83
2017-06-13T09:14:38.582Z,1012.79
2017-06-13T09:15:26.498Z,1012.74
2017-06-13T09:16:21.531Z,1012.81
2017-06-13T09:17:16.566Z,1012.79
2017-06-13T09:18:05.569Z,1012.86
2017-06-13T09:18:54.684Z,1012.78
2017-06-13T09:19:43.722Z,1012.74
2017-06-13T09:20:37.735Z,1012.68
2017-06-13T09:21:31.803Z,1012.85
2017-06-13T09:22:20.865Z,1012.96
2017-06-13T09:23:14.927Z,1013.00
2017-06-13T09:24:09.977Z,1012.98
2017-06-13T09:24:59.008Z,1013.06
2017-06-13T09:25:54.066Z,1013.04
2017-06-13T09:26:43.185Z,1013.04
2017-06-13T09:27:32.157Z,1013.01
2017-06-13T09:28:26.266Z,1013.04
2017-06-13T09:29:26.269Z,1013.03
2017-06-13T09:30:15.425Z,1013.06
2017-06-13T09:31:15.409Z,1013.04
2017-06-13T09:32:10.421Z,1013.05
2017-06-13T09:32:58.532Z,1013.12
2017-06-13T09:33:58.537Z,1013.09
2017-06-13T09:34:53.644Z,1013.11
2017-06-13T09:35:47.687Z,1013.11
2017-06-13T09:36:42.686Z,1013.12
2017-06-13T09:37:42.778Z,1013.16
2017-06-13T09:38:31.835Z,1013.10
2017-06-13T09:39:25.939Z,1013.13
2017-06-13T09:40:19.956Z,1013.02
2017-06-13T09:41:09.024Z,1013.06
2017-06-13T09:42:03.979Z,1013.13
2017-06-13T09:42:52.103Z,1013.12
2017-06-13T09:43:46.159Z,1013.04
2017-06-13T09:44:35.166Z,1012.99
2017-06-13T09:45:30.256Z,1012.95
2017-06-13T09:46:24.320Z,1013.10
2017-06-13T09:47:19.354Z,1013.23
2017-06-13T09:48:14.478Z,1013.20
2017-06-13T09:49:09.465Z,1013.24
2017-06-13T09:50:03.530Z,1013.20
2017-06-13T09:50:58.565Z,1013.13
2017-06-13T09:51:59.623Z,1013.10
2017-06-13T09:52:54.689Z,1013.10
2017-06-13T09:53:48.704Z,1013.09
2017-06-13T09:54:42.828Z,1013.11
2017-06-13T09:55:30.850Z,1013.12
2017-06-13T09:56:25.922Z,1013.12
2017-06-13T09:57:20.976Z,1012.87
2017-06-13T09:58:16.018Z,1012.89
2017-06-13T09:59:10.099Z,1012.82
2017-06-13T10:00:05.136Z,1013.07
2017-06-13T10:00:59.199Z,1013.09
2017-06-13T10:01:53.218Z,1012.90
2017-06-13T10:02:42.751Z,1012.81
2017-06-13T10:03:36.323Z,1012.80
2017-06-13T10:04:25.438Z,1012.78
2017-06-13T10:05:19.488Z,1012.74
2017-06-13T10:06:14.607Z,1012.70
2017-06-13T10:07:09.610Z,1012.58
2017-06-13T10:08:10.701Z,1012.53
2017-06-13T10:08:59.687Z,1012.51
2017-06-13T10:09:54.850Z,1012.59
2017-06-13T10:10:49.810Z,1012.69
2017-06-13T10:11:44.843Z,1012.76
2017-06-13T10:12:39.954Z,1012.83
2017-06-13T10:13:28.997Z,1012.79
2017-06-13T10:14:29.055Z,1012.87
2017-06-13T10:15:23.106Z,1012.79
2017-06-13T10:16:17.196Z,1012.73
2017-06-13T10:17:11.248Z,1012.70
2017-06-13T10:18:05.290Z,1012.76
2017-06-13T10:18:59.308Z,1012.80
2017-06-13T10:19:59.367Z,1012.87
2017-06-13T10:20:54.419Z,1013.22
2017-06-13T10:21:48.508Z,1013.19
2017-06-13T10:22:37.512Z,1013.06
2017-06-13T10:23:31.584Z,1013.03
2017-06-13T10:24:25.753Z,1012.95
2017-06-13T10:25:25.713Z,1012.82
2017-06-13T10:26:20.710Z,1012.81
2017-06-13T10:27:14.838Z,1012.69
2017-06-13T10:28:09.845Z,1012.60
2017-06-13T10:29:09.937Z,1012.61
2017-06-13T10:30:04.031Z,1012.59
2017-06-13T10:30:58.071Z,1012.60
2017-06-13T10:31:52.098Z,1012.55
2017-06-13T10:32:41.206Z,1012.62
2017-06-13T10:33:42.200Z,1012.54
2017-06-13T10:34:36.244Z,1012.58
2017-06-13T10:35:31.463Z,1012.57
2017-06-13T10:36:25.333Z,1012.64
2017-06-13T10:37:20.424Z,1012.62
2017-06-13T10:38:20.443Z,1012.67
2017-06-13T10:39:20.532Z,1012.75
2017-06-13T10:40:14.506Z,1012.75
2017-06-13T10:41:08.637Z,1012.75
2017-06-13T10:42:08.692Z,1012.81
2017-06-13T10:42:57.755Z,1012.92
2017-06-13T10:43:51.760Z,1012.94
2017-06-13T10:44:46.800Z,1013.03
2017-06-13T10:45:46.862Z,1013.06
2017-06-13T10:46:46.939Z,1013.11
2017-06-13T10:47:41.005Z,1013.14
2017-06-13T10:48:41.008Z,1013.09
2017-06-13T10:49:36.015Z,1013.08
2017-06-13T10:50:30.130Z,1013.13
2017-06-13T10:51:19.204Z,1013.08
2017-06-13T10:52:19.284Z,1012.97
2017-06-13T10:53:08.302Z,1012.97
2017-06-13T10:53:57.357Z,1012.98